Aviation Digital Data Service (ADDS)

Output produced by METARs form (2055 UTC 29 May 2017)
found at http://www.aviationweather.gov/adds/metars/
 
TAF MWCB 291700Z 2918/3018 10009KT 9999 FEW020 
     PROB30 
     TEMPO 3004/3010 9000 SHRA SCT018
       
TAF MWCR 291700Z 2918/3018 11009KT 9999 FEW018 
     PROB30 
     TEMPO 3006/3012 9000 SHRA SCT016